sensor_id;sensor_type;location;lat;lon;timestamp;P1;durP1;ratioP1;P2;durP2;ratioP2
23400;SDS011;11873;49.300;8.920;2023-06-26T00:03:36;4.97;;;4.40;;
23400;SDS011;11873;49.300;8.920;2023-06-26T00:08:36;4.63;;;4.13;;
23400;SDS011;11873;49.300;8.920;2023-06-26T00:13:36;5.30;;;4.57;;
23400;SDS011;11873;49.300;8.920;2023-06-26T00:18:36;5.87;;;4.07;;
23400;SDS011;11873;49.300;8.920;2023-06-26T00:23:37;4.37;;;3.97;;
23400;SDS011;11873;49.300;8.920;2023-06-26T00:28:37;4.30;;;3.97;;
23400;SDS011;11873;49.300;8.920;2023-06-26T00:33:37;5.10;;;4.57;;
23400;SDS011;11873;49.300;8.920;2023-06-26T00:38:37;4.77;;;4.37;;
23400;SDS011;11873;49.300;8.920;2023-06-26T00:43:38;7.57;;;4.00;;
23400;SDS011;11873;49.300;8.920;2023-06-26T00:48:39;4.93;;;4.30;;
23400;SDS011;11873;49.300;8.920;2023-06-26T00:53:41;4.60;;;4.03;;
23400;SDS011;11873;49.300;8.920;2023-06-26T00:58:42;5.17;;;4.67;;
23400;SDS011;11873;49.300;8.920;2023-06-26T01:03:43;5.70;;;4.87;;
23400;SDS011;11873;49.300;8.920;2023-06-26T01:08:44;4.43;;;4.03;;
23400;SDS011;11873;49.300;8.920;2023-06-26T01:13:44;4.72;;;4.32;;
23400;SDS011;11873;49.300;8.920;2023-06-26T01:18:45;4.82;;;4.28;;
23400;SDS011;11873;49.300;8.920;2023-06-26T01:23:57;5.27;;;3.93;;
23400;SDS011;11873;49.300;8.920;2023-06-26T01:28:58;5.17;;;4.50;;
23400;SDS011;11873;49.300;8.920;2023-06-26T01:33:59;4.60;;;4.17;;
23400;SDS011;11873;49.300;8.920;2023-06-26T01:39:00;4.33;;;3.93;;
23400;SDS011;11873;49.300;8.920;2023-06-26T01:44:09;4.50;;;4.10;;
23400;SDS011;11873;49.300;8.920;2023-06-26T01:54:21;7.53;;;4.30;;
23400;SDS011;11873;49.300;8.920;2023-06-26T01:59:22;7.13;;;4.83;;
23400;SDS011;11873;49.300;8.920;2023-06-26T02:04:23;4.53;;;4.13;;
23400;SDS011;11873;49.300;8.920;2023-06-26T02:09:23;4.20;;;3.90;;
23400;SDS011;11873;49.300;8.920;2023-06-26T02:14:23;5.27;;;4.43;;
23400;SDS011;11873;49.300;8.920;2023-06-26T02:19:24;5.70;;;4.50;;
23400;SDS011;11873;49.300;8.920;2023-06-26T02:24:24;5.17;;;4.20;;
23400;SDS011;11873;49.300;8.920;2023-06-26T02:29:24;5.23;;;4.73;;
23400;SDS011;11873;49.300;8.920;2023-06-26T02:34:24;4.33;;;3.90;;
23400;SDS011;11873;49.300;8.920;2023-06-26T02:39:24;6.20;;;4.30;;
23400;SDS011;11873;49.300;8.920;2023-06-26T02:44:24;4.63;;;4.00;;
23400;SDS011;11873;49.300;8.920;2023-06-26T02:49:25;5.43;;;3.93;;
23400;SDS011;11873;49.300;8.920;2023-06-26T02:54:25;4.50;;;4.10;;
23400;SDS011;11873;49.300;8.920;2023-06-26T02:59:25;5.30;;;4.10;;
23400;SDS011;11873;49.300;8.920;2023-06-26T03:04:25;5.60;;;4.13;;
23400;SDS011;11873;49.300;8.920;2023-06-26T03:09:25;7.63;;;4.60;;
23400;SDS011;11873;49.300;8.920;2023-06-26T03:14:26;4.30;;;3.80;;
23400;SDS011;11873;49.300;8.920;2023-06-26T03:19:26;4.60;;;4.13;;
23400;SDS011;11873;49.300;8.920;2023-06-26T03:24:26;6.03;;;4.30;;
23400;SDS011;11873;49.300;8.920;2023-06-26T03:29:26;5.63;;;3.70;;
23400;SDS011;11873;49.300;8.920;2023-06-26T03:34:26;7.33;;;4.00;;
23400;SDS011;11873;49.300;8.920;2023-06-26T03:39:26;8.77;;;4.87;;
23400;SDS011;11873;49.300;8.920;2023-06-26T03:44:27;4.60;;;3.90;;
23400;SDS011;11873;49.300;8.920;2023-06-26T03:49:27;6.20;;;4.73;;
23400;SDS011;11873;49.300;8.920;2023-06-26T03:54:27;8.07;;;3.87;;
23400;SDS011;11873;49.300;8.920;2023-06-26T03:59:27;4.83;;;3.90;;
23400;SDS011;11873;49.300;8.920;2023-06-26T04:04:27;5.40;;;4.00;;
23400;SDS011;11873;49.300;8.920;2023-06-26T04:09:28;5.67;;;4.13;;
23400;SDS011;11873;49.300;8.920;2023-06-26T04:14:28;7.70;;;4.80;;
23400;SDS011;11873;49.300;8.920;2023-06-26T04:19:29;5.77;;;4.57;;
23400;SDS011;11873;49.300;8.920;2023-06-26T04:24:29;7.07;;;4.40;;
23400;SDS011;11873;49.300;8.920;2023-06-26T04:29:29;6.90;;;4.20;;
23400;SDS011;11873;49.300;8.920;2023-06-26T04:34:29;5.80;;;4.70;;
23400;SDS011;11873;49.300;8.920;2023-06-26T04:39:30;5.40;;;4.87;;
23400;SDS011;11873;49.300;8.920;2023-06-26T04:44:30;5.43;;;4.43;;
23400;SDS011;11873;49.300;8.920;2023-06-26T04:49:31;6.07;;;4.82;;
23400;SDS011;11873;49.300;8.920;2023-06-26T04:54:31;7.20;;;5.37;;
23400;SDS011;11873;49.300;8.920;2023-06-26T04:59:31;7.07;;;4.37;;
23400;SDS011;11873;49.300;8.920;2023-06-26T05:04:32;5.93;;;4.77;;
23400;SDS011;11873;49.300;8.920;2023-06-26T05:09:32;6.63;;;4.13;;
23400;SDS011;11873;49.300;8.920;2023-06-26T05:14:32;5.07;;;4.57;;
23400;SDS011;11873;49.300;8.920;2023-06-26T05:19:32;5.77;;;5.17;;
23400;SDS011;11873;49.300;8.920;2023-06-26T05:24:36;5.93;;;4.90;;
23400;SDS011;11873;49.300;8.920;2023-06-26T05:29:37;5.77;;;5.03;;
23400;SDS011;11873;49.300;8.920;2023-06-26T05:34:37;4.57;;;4.17;;
23400;SDS011;11873;49.300;8.920;2023-06-26T05:39:38;5.33;;;4.83;;
23400;SDS011;11873;49.300;8.920;2023-06-26T05:44:38;4.87;;;4.03;;
23400;SDS011;11873;49.300;8.920;2023-06-26T05:49:38;4.63;;;4.23;;
23400;SDS011;11873;49.300;8.920;2023-06-26T05:54:38;6.97;;;4.60;;
23400;SDS011;11873;49.300;8.920;2023-06-26T05:59:39;4.43;;;4.03;;
23400;SDS011;11873;49.300;8.920;2023-06-26T06:04:40;8.50;;;5.03;;
23400;SDS011;11873;49.300;8.920;2023-06-26T06:09:40;7.73;;;4.77;;
23400;SDS011;11873;49.300;8.920;2023-06-26T06:14:42;5.07;;;3.90;;
23400;SDS011;11873;49.300;8.920;2023-06-26T06:19:44;4.63;;;4.23;;
23400;SDS011;11873;49.300;8.920;2023-06-26T06:24:45;5.50;;;4.77;;
23400;SDS011;11873;49.300;8.920;2023-06-26T06:29:45;6.60;;;4.43;;
23400;SDS011;11873;49.300;8.920;2023-06-26T06:34:45;6.00;;;4.40;;
23400;SDS011;11873;49.300;8.920;2023-06-26T06:39:45;5.90;;;4.87;;
23400;SDS011;11873;49.300;8.920;2023-06-26T06:44:45;4.87;;;4.40;;
23400;SDS011;11873;49.300;8.920;2023-06-26T06:49:45;6.63;;;4.63;;
23400;SDS011;11873;49.300;8.920;2023-06-26T06:54:55;5.07;;;4.57;;
23400;SDS011;11873;49.300;8.920;2023-06-26T06:59:56;5.53;;;4.90;;
23400;SDS011;11873;49.300;8.920;2023-06-26T07:04:56;6.40;;;5.63;;
23400;SDS011;11873;49.300;8.920;2023-06-26T07:09:58;5.93;;;5.03;;
23400;SDS011;11873;49.300;8.920;2023-06-26T07:14:58;5.67;;;4.30;;
23400;SDS011;11873;49.300;8.920;2023-06-26T07:25:30;6.40;;;4.83;;
23400;SDS011;11873;49.300;8.920;2023-06-26T07:30:30;5.77;;;5.17;;
23400;SDS011;11873;49.300;8.920;2023-06-26T07:35:31;5.70;;;5.03;;
23400;SDS011;11873;49.300;8.920;2023-06-26T07:40:31;7.27;;;5.40;;
23400;SDS011;11873;49.300;8.920;2023-06-26T07:45:31;10.13;;;5.63;;
23400;SDS011;11873;49.300;8.920;2023-06-26T07:50:31;6.03;;;4.47;;
23400;SDS011;11873;49.300;8.920;2023-06-26T07:55:31;5.77;;;5.20;;
23400;SDS011;11873;49.300;8.920;2023-06-26T08:00:31;4.70;;;4.30;;
23400;SDS011;11873;49.300;8.920;2023-06-26T08:05:32;6.30;;;5.23;;
23400;SDS011;11873;49.300;8.920;2023-06-26T08:10:32;5.17;;;4.67;;
23400;SDS011;11873;49.300;8.920;2023-06-26T08:15:32;5.43;;;4.93;;
23400;SDS011;11873;49.300;8.920;2023-06-26T08:20:32;5.13;;;4.63;;
23400;SDS011;11873;49.300;8.920;2023-06-26T08:25:32;5.30;;;4.80;;
23400;SDS011;11873;49.300;8.920;2023-06-26T08:30:32;5.67;;;5.10;;
23400;SDS011;11873;49.300;8.920;2023-06-26T08:35:33;5.27;;;4.57;;
23400;SDS011;11873;49.300;8.920;2023-06-26T08:40:33;5.57;;;4.90;;
23400;SDS011;11873;49.300;8.920;2023-06-26T08:45:33;5.23;;;4.73;;
23400;SDS011;11873;49.300;8.920;2023-06-26T08:50:34;7.83;;;4.60;;
23400;SDS011;11873;49.300;8.920;2023-06-26T08:55:35;4.93;;;4.27;;
23400;SDS011;11873;49.300;8.920;2023-06-26T09:00:37;4.63;;;4.07;;
23400;SDS011;11873;49.300;8.920;2023-06-26T09:05:37;4.83;;;4.40;;
23400;SDS011;11873;49.300;8.920;2023-06-26T09:10:37;5.07;;;4.40;;
23400;SDS011;11873;49.300;8.920;2023-06-26T09:15:38;6.83;;;4.90;;
23400;SDS011;11873;49.300;8.920;2023-06-26T09:20:39;5.27;;;4.77;;
23400;SDS011;11873;49.300;8.920;2023-06-26T09:25:39;5.43;;;4.47;;
23400;SDS011;11873;49.300;8.920;2023-06-26T09:30:40;4.30;;;3.77;;
23400;SDS011;11873;49.300;8.920;2023-06-26T09:35:40;5.67;;;5.07;;
23400;SDS011;11873;49.300;8.920;2023-06-26T09:40:41;5.93;;;4.47;;
23400;SDS011;11873;49.300;8.920;2023-06-26T09:45:41;5.93;;;4.97;;
23400;SDS011;11873;49.300;8.920;2023-06-26T09:50:41;5.77;;;4.57;;
23400;SDS011;11873;49.300;8.920;2023-06-26T09:55:41;5.77;;;5.10;;
23400;SDS011;11873;49.300;8.920;2023-06-26T10:00:42;6.80;;;6.10;;
23400;SDS011;11873;49.300;8.920;2023-06-26T10:05:42;5.97;;;5.37;;
23400;SDS011;11873;49.300;8.920;2023-06-26T10:10:42;7.20;;;6.50;;
23400;SDS011;11873;49.300;8.920;2023-06-26T10:15:44;5.73;;;4.60;;
23400;SDS011;11873;49.300;8.920;2023-06-26T10:20:46;6.27;;;4.93;;
23400;SDS011;11873;49.300;8.920;2023-06-26T10:25:48;5.33;;;4.83;;
23400;SDS011;11873;49.300;8.920;2023-06-26T10:30:48;7.07;;;4.83;;
23400;SDS011;11873;49.300;8.920;2023-06-26T10:35:50;5.47;;;4.97;;
23400;SDS011;11873;49.300;8.920;2023-06-26T10:40:50;5.50;;;5.00;;
23400;SDS011;11873;49.300;8.920;2023-06-26T10:45:50;4.93;;;4.50;;
23400;SDS011;11873;49.300;8.920;2023-06-26T10:50:54;5.13;;;4.63;;
23400;SDS011;11873;49.300;8.920;2023-06-26T11:01:17;5.13;;;4.67;;
23400;SDS011;11873;49.300;8.920;2023-06-26T11:06:17;5.87;;;5.30;;
23400;SDS011;11873;49.300;8.920;2023-06-26T11:11:17;5.00;;;4.43;;
23400;SDS011;11873;49.300;8.920;2023-06-26T11:16:17;6.30;;;5.70;;
23400;SDS011;11873;49.300;8.920;2023-06-26T11:21:17;6.10;;;5.40;;
23400;SDS011;11873;49.300;8.920;2023-06-26T11:26:21;6.57;;;5.97;;
23400;SDS011;11873;49.300;8.920;2023-06-26T11:31:28;7.70;;;5.03;;
23400;SDS011;11873;49.300;8.920;2023-06-26T11:36:28;3.47;;;3.17;;
23400;SDS011;11873;49.300;8.920;2023-06-26T11:41:32;5.67;;;5.13;;
23400;SDS011;11873;49.300;8.920;2023-06-26T11:46:34;5.57;;;4.20;;
23400;SDS011;11873;49.300;8.920;2023-06-26T11:51:35;6.37;;;4.97;;
23400;SDS011;11873;49.300;8.920;2023-06-26T11:56:35;6.73;;;6.13;;
23400;SDS011;11873;49.300;8.920;2023-06-26T12:01:36;6.50;;;5.27;;
23400;SDS011;11873;49.300;8.920;2023-06-26T12:06:37;6.30;;;5.70;;
23400;SDS011;11873;49.300;8.920;2023-06-26T12:11:38;6.43;;;5.17;;
23400;SDS011;11873;49.300;8.920;2023-06-26T12:16:38;6.07;;;5.47;;
23400;SDS011;11873;49.300;8.920;2023-06-26T12:26:44;4.63;;;4.03;;
23400;SDS011;11873;49.300;8.920;2023-06-26T12:31:45;6.03;;;5.10;;
23400;SDS011;11873;49.300;8.920;2023-06-26T12:36:46;4.77;;;4.37;;
23400;SDS011;11873;49.300;8.920;2023-06-26T12:41:53;4.90;;;4.37;;
23400;SDS011;11873;49.300;8.920;2023-06-26T12:46:59;7.90;;;4.40;;
23400;SDS011;11873;49.300;8.920;2023-06-26T12:52:00;5.70;;;4.60;;
23400;SDS011;11873;49.300;8.920;2023-06-26T12:57:00;4.77;;;4.27;;
23400;SDS011;11873;49.300;8.920;2023-06-26T13:02:01;5.47;;;4.50;;
23400;SDS011;11873;49.300;8.920;2023-06-26T13:07:01;6.27;;;3.87;;
23400;SDS011;11873;49.300;8.920;2023-06-26T13:12:01;6.10;;;3.07;;
23400;SDS011;11873;49.300;8.920;2023-06-26T13:17:01;4.53;;;3.80;;
23400;SDS011;11873;49.300;8.920;2023-06-26T13:22:02;5.03;;;3.60;;
23400;SDS011;11873;49.300;8.920;2023-06-26T13:27:04;3.97;;;3.57;;
23400;SDS011;11873;49.300;8.920;2023-06-26T13:32:05;3.80;;;3.10;;
23400;SDS011;11873;49.300;8.920;2023-06-26T13:37:05;5.53;;;3.77;;
23400;SDS011;11873;49.300;8.920;2023-06-26T13:42:07;3.90;;;3.50;;
23400;SDS011;11873;49.300;8.920;2023-06-26T13:47:07;3.80;;;3.40;;
23400;SDS011;11873;49.300;8.920;2023-06-26T13:52:07;3.83;;;3.43;;
23400;SDS011;11873;49.300;8.920;2023-06-26T13:57:07;4.73;;;3.60;;
23400;SDS011;11873;49.300;8.920;2023-06-26T14:02:08;4.77;;;3.17;;
23400;SDS011;11873;49.300;8.920;2023-06-26T14:07:09;5.90;;;3.43;;
23400;SDS011;11873;49.300;8.920;2023-06-26T14:12:09;5.43;;;4.40;;
23400;SDS011;11873;49.300;8.920;2023-06-26T14:17:09;4.33;;;3.87;;
23400;SDS011;11873;49.300;8.920;2023-06-26T14:22:09;4.27;;;3.87;;
23400;SDS011;11873;49.300;8.920;2023-06-26T14:27:10;5.20;;;3.63;;
23400;SDS011;11873;49.300;8.920;2023-06-26T14:32:10;7.33;;;5.13;;
23400;SDS011;11873;49.300;8.920;2023-06-26T14:37:14;9.20;;;5.57;;
23400;SDS011;11873;49.300;8.920;2023-06-26T14:42:14;8.20;;;6.70;;
23400;SDS011;11873;49.300;8.920;2023-06-26T14:47:14;10.50;;;6.60;;
23400;SDS011;11873;49.300;8.920;2023-06-26T14:52:14;8.53;;;6.60;;
23400;SDS011;11873;49.300;8.920;2023-06-26T14:57:14;8.70;;;5.80;;
23400;SDS011;11873;49.300;8.920;2023-06-26T15:02:15;9.07;;;5.63;;
23400;SDS011;11873;49.300;8.920;2023-06-26T15:07:15;6.27;;;4.27;;
23400;SDS011;11873;49.300;8.920;2023-06-26T15:12:15;5.23;;;4.00;;
23400;SDS011;11873;49.300;8.920;2023-06-26T15:17:15;3.53;;;3.17;;
23400;SDS011;11873;49.300;8.920;2023-06-26T15:22:17;3.93;;;2.67;;
23400;SDS011;11873;49.300;8.920;2023-06-26T15:27:17;3.57;;;2.43;;
23400;SDS011;11873;49.300;8.920;2023-06-26T15:32:17;2.30;;;2.07;;
23400;SDS011;11873;49.300;8.920;2023-06-26T15:37:18;4.30;;;2.10;;
23400;SDS011;11873;49.300;8.920;2023-06-26T15:42:18;3.00;;;2.10;;
23400;SDS011;11873;49.300;8.920;2023-06-26T15:47:18;2.60;;;2.23;;
23400;SDS011;11873;49.300;8.920;2023-06-26T15:52:18;6.97;;;2.20;;
23400;SDS011;11873;49.300;8.920;2023-06-26T15:57:18;3.50;;;1.77;;
23400;SDS011;11873;49.300;8.920;2023-06-26T16:02:18;2.60;;;2.03;;
23400;SDS011;11873;49.300;8.920;2023-06-26T16:07:18;2.90;;;2.03;;
23400;SDS011;11873;49.300;8.920;2023-06-26T16:12:19;2.30;;;2.10;;
23400;SDS011;11873;49.300;8.920;2023-06-26T16:17:19;2.43;;;1.90;;
23400;SDS011;11873;49.300;8.920;2023-06-26T16:22:19;6.20;;;1.53;;
23400;SDS011;11873;49.300;8.920;2023-06-26T16:27:19;2.37;;;1.90;;
23400;SDS011;11873;49.300;8.920;2023-06-26T16:32:19;1.53;;;1.33;;
23400;SDS011;11873;49.300;8.920;2023-06-26T16:37:19;1.93;;;1.60;;
23400;SDS011;11873;49.300;8.920;2023-06-26T16:42:20;2.17;;;1.60;;
23400;SDS011;11873;49.300;8.920;2023-06-26T16:47:20;2.53;;;1.60;;
23400;SDS011;11873;49.300;8.920;2023-06-26T16:52:20;1.80;;;1.70;;
23400;SDS011;11873;49.300;8.920;2023-06-26T16:57:20;1.37;;;1.37;;
23400;SDS011;11873;49.300;8.920;2023-06-26T17:02:20;2.13;;;1.57;;
23400;SDS011;11873;49.300;8.920;2023-06-26T17:07:21;3.83;;;1.90;;
23400;SDS011;11873;49.300;8.920;2023-06-26T17:12:21;1.97;;;1.70;;
23400;SDS011;11873;49.300;8.920;2023-06-26T17:17:21;2.53;;;1.63;;
23400;SDS011;11873;49.300;8.920;2023-06-26T17:22:21;2.50;;;1.70;;
23400;SDS011;11873;49.300;8.920;2023-06-26T17:27:21;2.23;;;1.87;;
23400;SDS011;11873;49.300;8.920;2023-06-26T17:32:22;3.73;;;1.50;;
23400;SDS011;11873;49.300;8.920;2023-06-26T17:37:22;5.80;;;1.70;;
23400;SDS011;11873;49.300;8.920;2023-06-26T17:42:23;1.90;;;1.47;;
23400;SDS011;11873;49.300;8.920;2023-06-26T17:47:23;1.73;;;1.60;;
23400;SDS011;11873;49.300;8.920;2023-06-26T17:52:23;3.47;;;1.67;;
23400;SDS011;11873;49.300;8.920;2023-06-26T17:57:23;3.20;;;1.80;;
23400;SDS011;11873;49.300;8.920;2023-06-26T18:02:24;1.90;;;1.60;;
23400;SDS011;11873;49.300;8.920;2023-06-26T18:07:24;2.33;;;1.70;;
23400;SDS011;11873;49.300;8.920;2023-06-26T18:12:24;1.67;;;1.57;;
23400;SDS011;11873;49.300;8.920;2023-06-26T18:17:24;1.87;;;1.10;;
23400;SDS011;11873;49.300;8.920;2023-06-26T18:22:24;1.70;;;1.57;;
23400;SDS011;11873;49.300;8.920;2023-06-26T18:27:24;3.87;;;1.57;;
23400;SDS011;11873;49.300;8.920;2023-06-26T18:32:25;2.20;;;1.40;;
23400;SDS011;11873;49.300;8.920;2023-06-26T18:37:25;2.53;;;1.90;;
23400;SDS011;11873;49.300;8.920;2023-06-26T18:42:25;3.83;;;1.33;;
23400;SDS011;11873;49.300;8.920;2023-06-26T18:47:25;1.67;;;1.53;;
23400;SDS011;11873;49.300;8.920;2023-06-26T18:52:25;2.63;;;1.50;;
23400;SDS011;11873;49.300;8.920;2023-06-26T18:57:25;1.73;;;1.30;;
23400;SDS011;11873;49.300;8.920;2023-06-26T19:02:25;6.00;;;1.57;;
23400;SDS011;11873;49.300;8.920;2023-06-26T19:07:26;2.47;;;1.50;;
23400;SDS011;11873;49.300;8.920;2023-06-26T19:12:26;1.47;;;1.37;;
23400;SDS011;11873;49.300;8.920;2023-06-26T19:17:26;2.43;;;1.40;;
23400;SDS011;11873;49.300;8.920;2023-06-26T19:22:26;2.67;;;1.93;;
23400;SDS011;11873;49.300;8.920;2023-06-26T19:27:27;2.30;;;1.60;;
23400;SDS011;11873;49.300;8.920;2023-06-26T19:32:27;2.10;;;1.53;;
23400;SDS011;11873;49.300;8.920;2023-06-26T19:37:27;2.83;;;1.70;;
23400;SDS011;11873;49.300;8.920;2023-06-26T19:42:27;1.70;;;1.60;;
23400;SDS011;11873;49.300;8.920;2023-06-26T19:47:27;3.83;;;1.83;;
23400;SDS011;11873;49.300;8.920;2023-06-26T19:52:28;4.17;;;1.67;;
23400;SDS011;11873;49.300;8.920;2023-06-26T19:57:28;2.43;;;1.40;;
23400;SDS011;11873;49.300;8.920;2023-06-26T20:02:28;2.00;;;1.50;;
23400;SDS011;11873;49.300;8.920;2023-06-26T20:07:28;2.87;;;1.77;;
23400;SDS011;11873;49.300;8.920;2023-06-26T20:12:28;2.23;;;1.53;;
23400;SDS011;11873;49.300;8.920;2023-06-26T20:17:29;2.30;;;1.80;;
23400;SDS011;11873;49.300;8.920;2023-06-26T20:22:29;6.80;;;1.70;;
23400;SDS011;11873;49.300;8.920;2023-06-26T20:27:29;1.63;;;1.53;;
23400;SDS011;11873;49.300;8.920;2023-06-26T20:32:29;2.13;;;1.70;;
23400;SDS011;11873;49.300;8.920;2023-06-26T20:37:29;1.83;;;1.63;;
23400;SDS011;11873;49.300;8.920;2023-06-26T20:42:30;1.77;;;1.60;;
23400;SDS011;11873;49.300;8.920;2023-06-26T20:47:30;3.17;;;1.30;;
23400;SDS011;11873;49.300;8.920;2023-06-26T20:52:30;2.50;;;1.60;;
23400;SDS011;11873;49.300;8.920;2023-06-26T20:57:32;1.87;;;1.60;;
23400;SDS011;11873;49.300;8.920;2023-06-26T21:02:32;3.00;;;1.60;;
23400;SDS011;11873;49.300;8.920;2023-06-26T21:07:32;1.80;;;1.60;;
23400;SDS011;11873;49.300;8.920;2023-06-26T21:12:32;2.27;;;1.30;;
23400;SDS011;11873;49.300;8.920;2023-06-26T21:17:32;3.67;;;1.70;;
23400;SDS011;11873;49.300;8.920;2023-06-26T21:22:32;6.07;;;2.07;;
23400;SDS011;11873;49.300;8.920;2023-06-26T21:27:33;5.30;;;1.42;;
23400;SDS011;11873;49.300;8.920;2023-06-26T21:32:33;1.40;;;1.30;;
23400;SDS011;11873;49.300;8.920;2023-06-26T21:37:33;2.72;;;1.70;;
23400;SDS011;11873;49.300;8.920;2023-06-26T21:42:33;2.00;;;1.43;;
23400;SDS011;11873;49.300;8.920;2023-06-26T21:47:33;2.10;;;1.50;;
23400;SDS011;11873;49.300;8.920;2023-06-26T21:52:34;3.40;;;1.30;;
23400;SDS011;11873;49.300;8.920;2023-06-26T21:57:34;7.27;;;1.87;;
23400;SDS011;11873;49.300;8.920;2023-06-26T22:02:34;4.30;;;1.60;;
23400;SDS011;11873;49.300;8.920;2023-06-26T22:07:34;1.50;;;1.40;;
23400;SDS011;11873;49.300;8.920;2023-06-26T22:12:34;2.27;;;1.50;;
23400;SDS011;11873;49.300;8.920;2023-06-26T22:17:45;1.50;;;1.40;;
23400;SDS011;11873;49.300;8.920;2023-06-26T22:22:46;2.67;;;1.30;;
23400;SDS011;11873;49.300;8.920;2023-06-26T22:27:47;1.70;;;1.37;;
23400;SDS011;11873;49.300;8.920;2023-06-26T22:32:48;3.12;;;1.65;;
23400;SDS011;11873;49.300;8.920;2023-06-26T22:37:48;1.60;;;1.50;;
23400;SDS011;11873;49.300;8.920;2023-06-26T22:42:48;2.07;;;1.40;;
23400;SDS011;11873;49.300;8.920;2023-06-26T22:47:48;3.33;;;1.50;;
23400;SDS011;11873;49.300;8.920;2023-06-26T22:52:48;2.47;;;1.70;;
23400;SDS011;11873;49.300;8.920;2023-06-26T22:57:49;1.70;;;1.47;;
23400;SDS011;11873;49.300;8.920;2023-06-26T23:02:49;4.40;;;1.63;;
23400;SDS011;11873;49.300;8.920;2023-06-26T23:07:49;2.00;;;1.53;;
23400;SDS011;11873;49.300;8.920;2023-06-26T23:12:49;1.90;;;1.60;;
23400;SDS011;11873;49.300;8.920;2023-06-26T23:17:50;3.13;;;1.80;;
23400;SDS011;11873;49.300;8.920;2023-06-26T23:22:50;3.27;;;1.83;;
23400;SDS011;11873;49.300;8.920;2023-06-26T23:27:50;2.53;;;1.67;;
23400;SDS011;11873;49.300;8.920;2023-06-26T23:32:50;2.78;;;1.48;;
23400;SDS011;11873;49.300;8.920;2023-06-26T23:37:50;2.43;;;1.63;;
23400;SDS011;11873;49.300;8.920;2023-06-26T23:42:51;1.30;;;1.20;;
23400;SDS011;11873;49.300;8.920;2023-06-26T23:47:52;2.50;;;1.40;;
23400;SDS011;11873;49.300;8.920;2023-06-26T23:52:52;2.30;;;1.50;;
23400;SDS011;11873;49.300;8.920;2023-06-26T23:57:52;2.37;;;1.60;;
